BBC Orinoco — V2DM2 — position and weather

sailwx.info

Track history (hours):
 
Tides and Currents Weather Stations Pressure Air Temp Water Temp Dewpoint Dewpoint Depression Visibility Wind Speed Wind Dir Waves Ship Positions

BBC Orinoco

Last reported at 2015-Mar-29 12:09 UTC. Time now 2015-Mar-30 02:23 UTC.
Position N 40°56' E 028°52'.

Length 143 m; draft 6.8 m.

Type: Cargo ship. MMSI: 305255000.

Date/timePositionNaut miles runAvg speedWind from/ knotsBaromVisibWave heightAir tempDewpointWater temp
2015-Mar-29 12:09N 40°56' E 028°52'4 6.2
2015-Mar-29 11:30N 40°58' E 028°57'20 8.9
2015-Mar-29 09:15N 41°16' E 029°07'4 5.7
2015-Mar-29 08:28N 41°20' E 029°04'1 0.7
2015-Mar-29 07:33N 41°21' E 029°04'1 0.7
2015-Mar-29 06:04N 41°20' E 029°02'17 0.8
2015-Mar-28 09:22N 41°25' E 029°24'1 0.8
2015-Mar-28 08:31N 41°25' E 029°23'1 0.9
2015-Mar-28 07:29N 41°26' E 029°22'219 8.8
2015-Mar-27 06:28N 42°17' E 034°08'1314.1
2015-Mar-27 05:33N 42°17' E 034°26'1413.7
2015-Mar-27 04:34N 42°17' E 034°44'1413.9
2015-Mar-27 03:33N 42°17' E 035°03'1414.2
2015-Mar-27 02:33N 42°14' E 035°22'1413.8
2015-Mar-27 01:33N 42°12' E 035°40'1313.4
2015-Mar-27 00:33N 42°09' E 035°58'1413.2
2015-Mar-26 23:31N 42°07' E 036°16'2813.9
2015-Mar-26 21:29N 42°02' E 036°54'  
Track history (hours):
 
Tides and Currents Weather Stations Pressure Air Temp Water Temp Dewpoint Dewpoint Depression Visibility Wind Speed Wind Dir Waves Ship Positions

BBC Orinoco

Last reported at 2015-Mar-29 12:09 UTC. Time now 2015-Mar-30 02:23 UTC.
Position N 40°56' E 028°52'.

Length 143 m; draft 6.8 m.

Type: Cargo ship. MMSI: 305255000.

Date/timePositionNaut miles runAvg speedWind from/ knotsBaromVisibWave heightAir tempDewpointWater temp
2015-Mar-29 12:09N 40°56' E 028°52'4 6.2
2015-Mar-29 11:30N 40°58' E 028°57'20 8.9
2015-Mar-29 09:15N 41°16' E 029°07'4 5.7
2015-Mar-29 08:28N 41°20' E 029°04'1 0.7
2015-Mar-29 07:33N 41°21' E 029°04'1 0.7
2015-Mar-29 06:04N 41°20' E 029°02'17 0.8
2015-Mar-28 09:22N 41°25' E 029°24'1 0.8
2015-Mar-28 08:31N 41°25' E 029°23'1 0.9
2015-Mar-28 07:29N 41°26' E 029°22'219 8.8
2015-Mar-27 06:28N 42°17' E 034°08'1314.1
2015-Mar-27 05:33N 42°17' E 034°26'1413.7
2015-Mar-27 04:34N 42°17' E 034°44'1413.9
2015-Mar-27 03:33N 42°17' E 035°03'1414.2
2015-Mar-27 02:33N 42°14' E 035°22'1413.8
2015-Mar-27 01:33N 42°12' E 035°40'1313.4
2015-Mar-27 00:33N 42°09' E 035°58'1413.2
2015-Mar-26 23:31N 42°07' E 036°16'2813.9
2015-Mar-26 21:29N 42°02' E 036°54'  

Dump ship's entire track history